Rawsonville, Michigan
Current Conditions -  °F | °C
As of 10:53 AM on Thursday 29 Jan 2015 (Local Time) from KYIP Reporting Station
Overcast Overcast  
Wind Chill: 31°   Ceiling: 3600
Heat Index: 35°   Visibility: 10mi
Dew Point: 26°   Wind: 5mph
Humidity: 70%   Direction: 170°S
Pressure: 29.74"   Gusts: NA
Location:  42.1967°N, 83.6251°W
Report Text: KYIP 291553Z 17004KT 10SM OVC036 02/M03 A2974 RMK AO2 SLP077 T00171033
Loading
Personal Weather Stations






























Interactive Weather Map New forecast layout! Learn more

10-Day Weather Forecast

Advertisements
Track Severe Weather on mobile